createdAt,value
2017-07-05T00:01:26.888Z,51.60
2017-07-05T00:03:54.678Z,51.60
2017-07-05T00:06:22.351Z,51.70
2017-07-05T00:08:50.031Z,51.80
2017-07-05T00:11:18.500Z,51.80
2017-07-05T00:13:46.243Z,51.80
2017-07-05T00:16:14.008Z,52.10
2017-07-05T00:18:41.770Z,52.00
2017-07-05T00:21:09.535Z,52.20
2017-07-05T00:23:37.448Z,52.30
2017-07-05T00:26:05.986Z,52.30
2017-07-05T00:28:33.614Z,52.30
2017-07-05T00:31:01.411Z,52.30
2017-07-05T00:33:29.175Z,52.40
2017-07-05T00:35:56.940Z,52.50
2017-07-05T00:38:24.625Z,52.50
2017-07-05T00:40:52.364Z,53.00
2017-07-05T00:43:20.049Z,52.50
2017-07-05T00:45:47.714Z,52.50
2017-07-05T00:48:15.477Z,52.60
2017-07-05T00:50:43.147Z,52.70
2017-07-05T00:53:10.983Z,52.50
2017-07-05T00:55:38.748Z,52.50
2017-07-05T00:58:06.445Z,52.50
2017-07-05T01:00:34.927Z,53.20
2017-07-05T01:03:03.328Z,52.70
2017-07-05T01:05:31.136Z,52.60
2017-07-05T01:07:58.901Z,52.80
2017-07-05T01:10:26.587Z,52.80
2017-07-05T01:12:54.428Z,52.80
2017-07-05T01:15:22.194Z,52.90
2017-07-05T01:17:49.851Z,52.90
2017-07-05T01:20:17.619Z,53.00
2017-07-05T01:22:45.277Z,52.80
2017-07-05T01:25:13.149Z,53.00
2017-07-05T01:27:40.909Z,53.10
2017-07-05T01:30:08.573Z,53.40
2017-07-05T01:32:36.336Z,53.30
2017-07-05T01:35:03.983Z,53.20
2017-07-05T01:37:31.865Z,53.90
2017-07-05T01:39:59.527Z,53.50
2017-07-05T01:42:27.206Z,53.60
2017-07-05T01:44:55.057Z,53.60
2017-07-05T01:47:22.822Z,53.60
2017-07-05T01:49:50.689Z,53.70
2017-07-05T01:52:18.499Z,53.60
2017-07-05T01:54:46.934Z,53.80
2017-07-05T01:57:14.697Z,53.80
2017-07-05T01:59:42.361Z,53.90
2017-07-05T02:02:10.027Z,53.90
2017-07-05T02:04:37.655Z,53.90
2017-07-05T02:07:05.342Z,54.10
2017-07-05T02:09:33.028Z,54.00
2017-07-05T02:12:00.769Z,54.00
2017-07-05T02:14:28.531Z,53.90
2017-07-05T02:16:56.215Z,54.20
2017-07-05T02:19:23.963Z,54.00
2017-07-05T02:21:51.638Z,54.20
2017-07-05T02:24:19.486Z,54.30
2017-07-05T02:26:47.167Z,54.40
2017-07-05T02:29:14.811Z,54.50
2017-07-05T02:31:42.677Z,54.50
2017-07-05T02:34:10.442Z,54.60
2017-07-05T02:36:38.204Z,54.70
2017-07-05T02:39:06.073Z,54.80
2017-07-05T02:41:33.837Z,54.80
2017-07-05T02:44:01.601Z,55.00
2017-07-05T02:46:29.283Z,55.20
2017-07-05T02:48:57.028Z,55.30
2017-07-05T02:51:24.794Z,55.70
2017-07-05T02:53:52.658Z,55.80
2017-07-05T02:56:20.303Z,55.90
2017-07-05T02:58:48.086Z,56.10
2017-07-05T03:01:15.759Z,56.20
2017-07-05T03:03:43.526Z,56.40
2017-07-05T03:06:11.196Z,56.40
2017-07-05T03:08:39.039Z,56.40
2017-07-05T03:11:06.801Z,56.60
2017-07-05T03:13:34.465Z,56.80
2017-07-05T03:16:02.139Z,56.80
2017-07-05T03:18:29.893Z,57.00
2017-07-05T03:20:57.572Z,57.10
2017-07-05T03:23:25.425Z,57.20
2017-07-05T03:25:53.185Z,57.50
2017-07-05T03:28:20.947Z,57.40
2017-07-05T03:30:48.742Z,57.50
2017-07-05T03:33:16.392Z,57.70
2017-07-05T03:35:44.137Z,57.70
2017-07-05T03:38:11.904Z,57.80
2017-07-05T03:40:39.582Z,57.60
2017-07-05T03:43:07.326Z,57.70
2017-07-05T03:45:35.094Z,57.80
2017-07-05T03:48:02.780Z,57.80
2017-07-05T03:50:30.448Z,57.80
2017-07-05T03:52:58.184Z,57.90
2017-07-05T03:55:25.945Z,57.90
2017-07-05T03:57:53.623Z,58.00
2017-07-05T04:00:21.373Z,57.90
2017-07-05T04:02:49.034Z,57.90
2017-07-05T04:05:16.795Z,58.00
2017-07-05T04:07:44.480Z,58.00
2017-07-05T04:10:12.113Z,57.80
2017-07-05T04:12:39.886Z,57.90
2017-07-05T04:15:07.562Z,58.20
2017-07-05T04:17:35.201Z,58.00
2017-07-05T04:20:02.895Z,58.20
2017-07-05T04:22:30.636Z,58.30
2017-07-05T04:24:58.397Z,58.40
2017-07-05T04:27:26.184Z,58.40
2017-07-05T04:29:53.929Z,58.40
2017-07-05T04:32:21.692Z,58.50
2017-07-05T04:34:49.558Z,58.40
2017-07-05T04:37:17.250Z,58.50
2017-07-05T04:39:44.983Z,58.60
2017-07-05T04:42:12.750Z,58.50
2017-07-05T04:44:40.378Z,58.60
2017-07-05T04:47:08.174Z,58.60
2017-07-05T04:49:36.043Z,58.60
2017-07-05T04:52:03.700Z,58.80
2017-07-05T04:54:31.363Z,58.70
2017-07-05T04:56:59.233Z,58.90
2017-07-05T04:59:26.996Z,58.90
2017-07-05T05:01:54.759Z,58.90
2017-07-05T05:04:22.626Z,58.90
2017-07-05T05:06:50.392Z,59.00
2017-07-05T05:09:18.156Z,58.90
2017-07-05T05:11:45.939Z,59.00
2017-07-05T05:14:13.683Z,59.20
2017-07-05T05:16:41.311Z,59.20
2017-07-05T05:19:09.110Z,59.10
2017-07-05T05:21:36.874Z,59.20
2017-07-05T05:24:04.502Z,59.40
2017-07-05T05:26:32.300Z,59.30
2017-07-05T05:28:59.960Z,59.30
2017-07-05T05:31:27.624Z,59.60
2017-07-05T05:33:55.490Z,59.50
2017-07-05T05:36:23.172Z,59.60
2017-07-05T05:38:50.917Z,59.70
2017-07-05T05:41:18.614Z,59.70
2017-07-05T05:43:47.162Z,59.90
2017-07-05T05:46:14.927Z,59.80
2017-07-05T05:48:42.713Z,60.00
2017-07-05T05:51:10.471Z,60.00
2017-07-05T05:53:38.216Z,60.60
2017-07-05T05:56:05.998Z,60.20
2017-07-05T05:58:33.649Z,60.70
2017-07-05T06:01:01.408Z,60.40
2017-07-05T06:03:29.703Z,60.70
2017-07-05T06:05:57.467Z,60.50
2017-07-05T06:08:25.315Z,61.90
2017-07-05T06:10:53.011Z,60.90
2017-07-05T06:13:21.474Z,60.80
2017-07-05T06:15:49.324Z,60.60
2017-07-05T06:18:17.019Z,61.40
2017-07-05T06:20:44.751Z,61.10
2017-07-05T06:23:12.512Z,61.30
2017-07-05T06:25:40.147Z,61.10
2017-07-05T06:28:07.775Z,61.20
2017-07-05T06:30:36.322Z,61.30
2017-07-05T06:33:03.980Z,61.10
2017-07-05T06:35:31.747Z,61.10
2017-07-05T06:37:59.543Z,61.50
2017-07-05T06:40:28.095Z,61.10
2017-07-05T06:42:55.727Z,61.50
2017-07-05T06:45:23.441Z,61.30
2017-07-05T06:47:51.284Z,61.60
2017-07-05T06:50:18.911Z,61.60
2017-07-05T06:52:46.626Z,62.30
2017-07-05T06:55:14.371Z,62.00
2017-07-05T06:57:42.002Z,62.60
2017-07-05T07:00:09.796Z,63.90
2017-07-05T07:02:37.479Z,62.60
2017-07-05T07:05:05.144Z,61.70
2017-07-05T07:07:32.893Z,60.90
2017-07-05T07:10:00.572Z,61.70
2017-07-05T07:12:28.312Z,62.60
2017-07-05T07:14:56.000Z,63.30
2017-07-05T07:17:23.740Z,62.40
2017-07-05T07:19:51.499Z,61.30
2017-07-05T07:22:19.265Z,61.20
2017-07-05T07:24:47.031Z,61.40
2017-07-05T07:27:14.716Z,60.80
2017-07-05T07:29:42.563Z,59.70
2017-07-05T07:32:10.220Z,61.10
2017-07-05T07:34:37.985Z,61.10
2017-07-05T07:37:05.664Z,60.00
2017-07-05T07:39:33.291Z,59.80
2017-07-05T07:42:00.986Z,60.00
2017-07-05T07:44:28.843Z,60.00
2017-07-05T07:46:56.602Z,59.00
2017-07-05T07:49:24.371Z,59.60
2017-07-05T07:51:52.226Z,60.00
2017-07-05T07:54:19.995Z,59.80
2017-07-05T07:56:47.660Z,59.50
2017-07-05T07:59:15.423Z,59.30
2017-07-05T08:01:43.188Z,59.20
2017-07-05T08:04:10.868Z,59.00
2017-07-05T08:06:40.309Z,58.90
2017-07-05T08:09:08.117Z,59.00
2017-07-05T08:11:35.879Z,59.00
2017-07-05T08:14:03.650Z,58.40
2017-07-05T08:16:31.409Z,57.50
2017-07-05T08:18:59.176Z,58.40
2017-07-05T08:21:27.043Z,58.10
2017-07-05T08:23:54.807Z,58.20
2017-07-05T08:26:22.497Z,57.50
2017-07-05T08:28:50.254Z,57.10
2017-07-05T08:31:18.120Z,56.90
2017-07-05T08:33:45.989Z,57.30
2017-07-05T08:36:13.831Z,57.80
2017-07-05T08:38:41.459Z,57.70
2017-07-05T08:41:09.171Z,57.30
2017-07-05T08:43:37.023Z,55.30
2017-07-05T08:46:04.786Z,56.10
2017-07-05T08:48:32.482Z,56.60
2017-07-05T08:51:00.952Z,56.20
2017-07-05T08:53:28.607Z,56.10
2017-07-05T08:55:56.282Z,54.00
2017-07-05T08:58:24.117Z,55.80
2017-07-05T09:00:51.799Z,55.40
2017-07-05T09:03:19.543Z,54.90
2017-07-05T09:05:47.308Z,54.60
2017-07-05T09:08:15.075Z,54.40
2017-07-05T09:10:42.715Z,54.60
2017-07-05T09:13:10.500Z,52.60
2017-07-05T09:15:38.264Z,53.80
2017-07-05T09:18:06.028Z,53.30
2017-07-05T09:20:33.791Z,53.10
2017-07-05T09:23:01.559Z,52.00
2017-07-05T09:25:29.187Z,52.40
2017-07-05T09:27:56.901Z,51.90
2017-07-05T09:30:24.644Z,51.40
2017-07-05T09:32:52.266Z,51.60
2017-07-05T09:35:20.191Z,52.30
2017-07-05T09:37:48.059Z,51.20
2017-07-05T09:40:15.805Z,51.10
2017-07-05T09:42:43.475Z,51.60
2017-07-05T09:45:11.231Z,51.90
2017-07-05T09:47:38.994Z,51.30
2017-07-05T09:50:06.862Z,50.70
2017-07-05T09:52:34.691Z,50.30
2017-07-05T09:55:02.504Z,49.40
2017-07-05T09:57:30.378Z,49.40
2017-07-05T09:59:58.241Z,50.60
2017-07-05T10:02:26.209Z,49.50
2017-07-05T10:04:54.080Z,48.20
2017-07-05T10:07:21.943Z,48.90
2017-07-05T10:09:49.913Z,47.00
2017-07-05T10:12:17.884Z,47.40
2017-07-05T10:14:45.748Z,47.40
2017-07-05T10:17:13.613Z,48.00
2017-07-05T10:19:41.479Z,47.00
2017-07-05T10:22:09.345Z,46.60
2017-07-05T10:24:37.216Z,46.40
2017-07-05T10:27:05.183Z,47.00
2017-07-05T10:29:32.952Z,46.30
2017-07-05T10:32:00.695Z,45.80
2017-07-05T10:34:28.581Z,45.50
2017-07-05T10:36:56.446Z,46.20
2017-07-05T10:39:24.311Z,45.50
2017-07-05T10:41:52.176Z,45.50
2017-07-05T10:44:20.043Z,46.50
2017-07-05T10:46:47.917Z,47.50
2017-07-05T10:49:15.887Z,47.50
2017-07-05T10:51:43.753Z,47.20
2017-07-05T10:54:12.302Z,46.30
2017-07-05T10:56:40.308Z,47.00
2017-07-05T10:59:08.152Z,46.80
2017-07-05T11:01:36.034Z,46.30
2017-07-05T11:04:03.899Z,47.20
2017-07-05T11:06:31.769Z,47.00
2017-07-05T11:08:59.635Z,45.70
2017-07-05T11:11:27.599Z,45.10
2017-07-05T11:13:55.348Z,45.00
2017-07-05T11:16:23.113Z,46.00
2017-07-05T11:18:50.982Z,45.30
2017-07-05T11:21:18.693Z,45.80
2017-07-05T11:23:47.226Z,44.20
2017-07-05T11:26:15.099Z,44.20
2017-07-05T11:28:42.979Z,45.60
2017-07-05T11:31:10.840Z,45.60
2017-07-05T11:33:38.707Z,44.80
2017-07-05T11:36:06.379Z,45.00
2017-07-05T11:38:34.118Z,45.30
2017-07-05T11:41:01.882Z,44.40
2017-07-05T11:43:29.645Z,44.80
2017-07-05T11:45:57.410Z,45.20
2017-07-05T11:48:25.275Z,45.40
2017-07-05T11:50:53.042Z,45.00
2017-07-05T11:53:20.807Z,44.40
2017-07-05T11:55:48.600Z,43.80
2017-07-05T11:58:16.234Z,43.90
2017-07-05T12:00:43.996Z,44.60
2017-07-05T12:03:11.863Z,43.90
2017-07-05T12:05:39.491Z,44.90
2017-07-05T12:08:07.289Z,45.20
2017-07-05T12:10:35.156Z,44.40
2017-07-05T12:13:02.918Z,44.60
2017-07-05T12:15:30.614Z,43.50
2017-07-05T12:17:58.450Z,44.40
2017-07-05T12:20:26.213Z,42.40
2017-07-05T12:22:53.843Z,42.60
2017-07-05T12:25:21.638Z,42.30
2017-07-05T12:27:49.297Z,43.20
2017-07-05T12:30:16.962Z,42.10
2017-07-05T12:32:44.640Z,42.10
2017-07-05T12:35:12.389Z,42.70
2017-07-05T12:37:40.048Z,42.00
2017-07-05T12:40:07.919Z,41.30
2017-07-05T12:42:35.604Z,41.10
2017-07-05T12:45:03.342Z,40.70
2017-07-05T12:47:31.210Z,41.30
2017-07-05T12:49:58.892Z,41.50
2017-07-05T12:52:26.632Z,41.40
2017-07-05T12:54:54.503Z,41.00
2017-07-05T12:57:22.179Z,41.00
2017-07-05T12:59:49.806Z,41.90
2017-07-05T13:02:17.589Z,41.70
2017-07-05T13:04:45.353Z,41.80
2017-07-05T13:07:13.116Z,42.40
2017-07-05T13:09:40.983Z,42.20
2017-07-05T13:12:08.750Z,41.50
2017-07-05T13:14:36.511Z,41.70
2017-07-05T13:17:04.201Z,41.50
2017-07-05T13:19:31.832Z,41.80
2017-07-05T13:21:59.520Z,43.40
2017-07-05T13:24:27.367Z,42.60
2017-07-05T13:26:55.043Z,41.90
2017-07-05T13:29:24.430Z,41.80
2017-07-05T13:31:52.296Z,41.80
2017-07-05T13:34:19.928Z,41.80
2017-07-05T13:36:47.647Z,41.50
2017-07-05T13:39:15.486Z,41.60
2017-07-05T13:41:43.249Z,41.40
2017-07-05T13:44:11.015Z,41.90
2017-07-05T13:46:38.779Z,42.00
2017-07-05T13:49:06.465Z,41.60
2017-07-05T13:51:34.119Z,40.90
2017-07-05T13:54:01.969Z,40.80
2017-07-05T13:56:29.733Z,41.00
2017-07-05T13:58:57.417Z,41.20
2017-07-05T14:01:25.263Z,40.60
2017-07-05T14:03:52.943Z,40.50
2017-07-05T14:06:20.688Z,40.10
2017-07-05T14:08:48.451Z,39.60
2017-07-05T14:11:16.137Z,39.90
2017-07-05T14:13:43.795Z,39.90
2017-07-05T14:16:11.649Z,39.60
2017-07-05T14:18:39.409Z,39.60
2017-07-05T14:21:07.168Z,39.10
2017-07-05T14:23:34.829Z,40.90
2017-07-05T14:26:02.493Z,40.90
2017-07-05T14:28:30.258Z,39.90
2017-07-05T14:30:58.024Z,40.10
2017-07-05T14:33:25.789Z,40.00
2017-07-05T14:35:53.654Z,39.80
2017-07-05T14:38:21.611Z,39.80
2017-07-05T14:40:49.287Z,40.20
2017-07-05T14:43:17.056Z,40.80
2017-07-05T14:45:44.917Z,40.00
2017-07-05T14:48:12.601Z,40.30
2017-07-05T14:50:40.345Z,41.10
2017-07-05T14:53:08.212Z,40.10
2017-07-05T14:55:35.857Z,41.00
2017-07-05T14:58:03.634Z,41.10
2017-07-05T15:00:31.320Z,40.60
2017-07-05T15:02:59.062Z,39.20
2017-07-05T15:05:26.739Z,39.80
2017-07-05T15:07:54.505Z,39.90
2017-07-05T15:10:22.249Z,40.90
2017-07-05T15:12:50.021Z,40.40
2017-07-05T15:15:17.882Z,40.40
2017-07-05T15:17:45.646Z,40.20
2017-07-05T15:20:13.413Z,39.30
2017-07-05T15:22:41.091Z,40.10
2017-07-05T15:25:08.750Z,40.50
2017-07-05T15:27:36.501Z,41.20
2017-07-05T15:30:04.181Z,40.20
2017-07-05T15:32:31.958Z,40.20
2017-07-05T15:35:00.505Z,40.60
2017-07-05T15:37:28.377Z,40.00
2017-07-05T15:39:56.138Z,39.80
2017-07-05T15:42:23.825Z,40.60
2017-07-05T15:44:51.579Z,41.40
2017-07-05T15:47:19.331Z,41.40
2017-07-05T15:49:47.092Z,41.50
2017-07-05T15:52:14.858Z,40.40
2017-07-05T15:54:42.621Z,41.00
2017-07-05T15:57:10.298Z,41.40
2017-07-05T15:59:37.990Z,41.60
2017-07-05T16:02:06.432Z,41.00
2017-07-05T16:04:34.128Z,40.90
2017-07-05T16:07:02.572Z,41.10
2017-07-05T16:09:30.332Z,41.00
2017-07-05T16:11:58.099Z,40.90
2017-07-05T16:14:25.757Z,41.30
2017-07-05T16:16:53.461Z,41.30
2017-07-05T16:19:21.897Z,41.50
2017-07-05T16:21:49.665Z,41.50
2017-07-05T16:24:17.349Z,41.70
2017-07-05T16:26:45.195Z,41.70
2017-07-05T16:29:12.958Z,41.80
2017-07-05T16:31:40.723Z,41.90
2017-07-05T16:34:08.516Z,41.80
2017-07-05T16:36:36.251Z,42.30
2017-07-05T16:39:03.914Z,42.30
2017-07-05T16:41:31.781Z,42.10
2017-07-05T16:43:59.466Z,42.10
2017-07-05T16:46:27.228Z,42.30
2017-07-05T16:48:54.896Z,42.40
2017-07-05T16:51:22.628Z,42.60
2017-07-05T16:53:50.395Z,42.70
2017-07-05T16:56:18.261Z,42.50
2017-07-05T16:58:46.024Z,42.70
2017-07-05T17:01:13.788Z,42.70
2017-07-05T17:03:41.555Z,42.90
2017-07-05T17:06:09.320Z,42.70
2017-07-05T17:08:37.084Z,42.20
2017-07-05T17:11:04.751Z,42.50
2017-07-05T17:13:32.407Z,42.60
2017-07-05T17:16:00.286Z,43.00
2017-07-05T17:18:28.163Z,43.20
2017-07-05T17:20:56.026Z,43.40
2017-07-05T17:23:23.895Z,43.00
2017-07-05T17:25:51.865Z,43.10
2017-07-05T17:28:19.727Z,43.00
2017-07-05T17:30:47.597Z,43.10
2017-07-05T17:33:15.559Z,43.80
2017-07-05T17:35:43.435Z,43.20
2017-07-05T17:38:11.296Z,43.90
2017-07-05T17:40:39.982Z,43.40
2017-07-05T17:43:07.844Z,43.40
2017-07-05T17:45:35.719Z,43.30
2017-07-05T17:48:03.578Z,44.00
2017-07-05T17:50:31.556Z,44.00
2017-07-05T17:52:59.425Z,44.00
2017-07-05T17:55:27.387Z,44.00
2017-07-05T17:57:55.136Z,43.90
2017-07-05T18:00:22.998Z,44.00
2017-07-05T18:02:50.628Z,43.90
2017-07-05T18:05:18.427Z,44.10
2017-07-05T18:07:46.101Z,44.30
2017-07-05T18:10:13.851Z,44.30
2017-07-05T18:12:41.616Z,44.60
2017-07-05T18:15:09.484Z,44.90
2017-07-05T18:17:37.123Z,44.60
2017-07-05T18:20:04.908Z,45.10
2017-07-05T18:22:32.673Z,44.80
2017-07-05T18:25:00.303Z,45.10
2017-07-05T18:27:28.098Z,44.80
2017-07-05T18:29:55.965Z,45.30
2017-07-05T18:32:23.729Z,45.50
2017-07-05T18:34:51.363Z,45.20
2017-07-05T18:37:19.082Z,45.50
2017-07-05T18:39:46.737Z,45.70
2017-07-05T18:42:14.483Z,46.00
2017-07-05T18:44:42.245Z,46.10
2017-07-05T18:47:09.874Z,46.10
2017-07-05T18:49:37.583Z,46.10
2017-07-05T18:52:05.434Z,46.20
2017-07-05T18:54:33.066Z,46.30
2017-07-05T18:57:00.976Z,46.20
2017-07-05T18:59:28.841Z,46.40
2017-07-05T19:01:56.714Z,46.50
2017-07-05T19:04:24.580Z,46.60
2017-07-05T19:06:52.542Z,46.60
2017-07-05T19:09:20.413Z,46.70
2017-07-05T19:11:48.292Z,46.80
2017-07-05T19:14:16.971Z,47.00
2017-07-05T19:16:44.830Z,46.90
2017-07-05T19:19:12.799Z,47.00
2017-07-05T19:21:40.671Z,47.00
2017-07-05T19:24:08.541Z,47.20
2017-07-05T19:26:36.500Z,47.40
2017-07-05T19:29:04.367Z,47.60
2017-07-05T19:31:32.351Z,47.70
2017-07-05T19:34:00.308Z,47.80
2017-07-05T19:36:28.171Z,47.60
2017-07-05T19:38:56.040Z,47.90
2017-07-05T19:41:24.015Z,48.10
2017-07-05T19:43:51.878Z,48.30
2017-07-05T19:46:19.747Z,48.40
2017-07-05T19:48:47.828Z,48.60
2017-07-05T19:51:15.687Z,48.40
2017-07-05T19:53:43.549Z,48.60
2017-07-05T19:56:11.322Z,48.70
2017-07-05T19:58:39.062Z,48.90
2017-07-05T20:01:06.824Z,48.90
2017-07-05T20:03:34.503Z,48.90
2017-07-05T20:06:02.145Z,48.90
2017-07-05T20:08:29.914Z,49.00
2017-07-05T20:10:57.678Z,49.00
2017-07-05T20:13:25.308Z,49.20
2017-07-05T20:15:53.101Z,49.10
2017-07-05T20:18:20.868Z,49.20
2017-07-05T20:20:48.757Z,49.20
2017-07-05T20:23:16.716Z,49.40
2017-07-05T20:25:44.589Z,49.30
2017-07-05T20:28:12.457Z,49.40
2017-07-05T20:30:40.427Z,49.50
2017-07-05T20:33:08.286Z,49.70
2017-07-05T20:35:36.155Z,49.80
2017-07-05T20:38:04.044Z,49.60
2017-07-05T20:40:32.605Z,49.90
2017-07-05T20:43:00.473Z,49.90
2017-07-05T20:45:28.445Z,50.00
2017-07-05T20:47:56.310Z,50.00
2017-07-05T20:50:24.180Z,50.10
2017-07-05T20:52:52.156Z,50.20
2017-07-05T20:55:20.014Z,50.20
2017-07-05T20:57:47.871Z,50.30
2017-07-05T21:00:15.847Z,50.40
2017-07-05T21:02:43.706Z,50.50
2017-07-05T21:05:11.580Z,50.60
2017-07-05T21:07:39.551Z,50.50
2017-07-05T21:10:07.421Z,50.60
2017-07-05T21:12:36.094Z,50.60
2017-07-05T21:15:04.071Z,50.80
2017-07-05T21:17:31.930Z,50.70
2017-07-05T21:19:59.801Z,50.80
2017-07-05T21:22:27.774Z,50.80
2017-07-05T21:24:55.647Z,51.00
2017-07-05T21:27:23.513Z,51.00
2017-07-05T21:29:51.479Z,51.10
2017-07-05T21:32:19.346Z,51.40
2017-07-05T21:34:47.213Z,51.30
2017-07-05T21:37:15.049Z,51.40
2017-07-05T21:39:42.947Z,51.40
2017-07-05T21:42:10.813Z,51.50
2017-07-05T21:44:38.783Z,51.40
2017-07-05T21:47:06.643Z,51.60
2017-07-05T21:49:34.593Z,51.70
2017-07-05T21:52:02.480Z,51.90
2017-07-05T21:54:30.453Z,51.90
2017-07-05T21:56:58.313Z,52.10
2017-07-05T21:59:26.185Z,52.30
2017-07-05T22:01:54.049Z,52.40
2017-07-05T22:04:21.910Z,52.40
2017-07-05T22:06:49.762Z,52.40
2017-07-05T22:09:17.456Z,52.40
2017-07-05T22:11:45.190Z,52.50
2017-07-05T22:14:12.868Z,52.50
2017-07-05T22:16:40.613Z,52.60
2017-07-05T22:19:08.376Z,52.50
2017-07-05T22:21:36.142Z,52.50
2017-07-05T22:24:03.780Z,53.30
2017-07-05T22:26:31.569Z,52.80
2017-07-05T22:28:59.343Z,53.00
2017-07-05T22:31:27.098Z,53.00
2017-07-05T22:33:54.758Z,53.00
2017-07-05T22:36:22.627Z,53.00
2017-07-05T22:38:50.286Z,53.10
2017-07-05T22:41:18.050Z,53.20
2017-07-05T22:43:45.816Z,53.40
2017-07-05T22:46:13.584Z,53.60
2017-07-05T22:48:41.856Z,53.50
2017-07-05T22:51:09.539Z,53.60
2017-07-05T22:53:37.284Z,53.70
2017-07-05T22:56:05.047Z,53.80
2017-07-05T22:58:33.170Z,53.80
2017-07-05T23:01:01.706Z,54.10
2017-07-05T23:03:30.083Z,54.00
2017-07-05T23:05:57.870Z,54.10
2017-07-05T23:08:25.611Z,54.10
2017-07-05T23:10:53.375Z,54.20
2017-07-05T23:13:21.241Z,54.20
2017-07-05T23:15:49.009Z,54.50
2017-07-05T23:18:16.634Z,54.40
2017-07-05T23:20:44.433Z,54.40
2017-07-05T23:23:12.438Z,54.50
2017-07-05T23:25:40.272Z,54.40
2017-07-05T23:28:08.084Z,54.50
2017-07-05T23:30:36.614Z,54.20
2017-07-05T23:33:04.304Z,54.60
2017-07-05T23:35:32.145Z,54.60
2017-07-05T23:37:59.775Z,55.20
2017-07-05T23:40:27.573Z,54.70
2017-07-05T23:42:55.437Z,54.80
2017-07-05T23:45:23.198Z,54.90
2017-07-05T23:47:50.962Z,54.80
2017-07-05T23:50:18.748Z,54.90
2017-07-05T23:52:46.388Z,54.80
2017-07-05T23:55:14.155Z,54.90
2017-07-05T23:57:41.940Z,54.80
